createdAt,value
2018-11-11T00:00:15.163Z,100.00
2018-11-11T00:02:44.126Z,100.00
2018-11-11T00:05:13.163Z,100.00
2018-11-11T00:07:42.454Z,100.00
2018-11-11T00:10:11.386Z,100.00
2018-11-11T00:12:40.677Z,100.00
2018-11-11T00:15:12.074Z,100.00
2018-11-11T00:17:42.060Z,100.00
2018-11-11T00:20:11.937Z,100.00
2018-11-11T00:22:41.364Z,100.00
2018-11-11T00:25:10.389Z,100.00
2018-11-11T00:27:40.090Z,100.00
2018-11-11T00:30:11.292Z,100.00
2018-11-11T00:32:40.461Z,100.00
2018-11-11T00:35:09.874Z,100.00
2018-11-11T00:37:38.956Z,100.00
2018-11-11T00:40:08.183Z,100.00
2018-11-11T00:42:37.182Z,100.00
2018-11-11T00:45:06.563Z,100.00
2018-11-11T00:47:35.498Z,100.00
2018-11-11T00:50:04.691Z,100.00
2018-11-11T00:52:33.660Z,100.00
2018-11-11T00:55:02.588Z,100.00
2018-11-11T00:57:31.610Z,100.00
2018-11-11T01:00:00.568Z,100.00
2018-11-11T01:02:29.522Z,100.00
2018-11-11T01:04:58.478Z,100.00
2018-11-11T01:07:27.434Z,100.00
2018-11-11T01:09:56.418Z,100.00
2018-11-11T01:12:25.439Z,100.00
2018-11-11T01:14:54.372Z,100.00
2018-11-11T01:17:23.290Z,100.00
2018-11-11T01:19:52.273Z,100.00
2018-11-11T01:22:21.226Z,100.00
2018-11-11T01:24:50.194Z,100.00
2018-11-11T01:27:19.140Z,100.00
2018-11-11T01:29:48.075Z,100.00
2018-11-11T01:32:17.122Z,100.00
2018-11-11T01:34:46.066Z,100.00
2018-11-11T01:37:15.059Z,100.00
2018-11-11T01:39:43.982Z,100.00
2018-11-11T01:42:12.935Z,100.00
2018-11-11T01:44:41.870Z,100.00
2018-11-11T01:47:10.802Z,100.00
2018-11-11T01:49:39.747Z,100.00
2018-11-11T01:52:08.684Z,100.00
2018-11-11T01:54:37.674Z,100.00
2018-11-11T01:57:06.632Z,100.00
2018-11-11T01:59:35.584Z,100.00
2018-11-11T02:02:04.534Z,100.00
2018-11-11T02:04:33.491Z,100.00
2018-11-11T02:07:02.449Z,100.00
2018-11-11T02:09:31.450Z,100.00
2018-11-11T02:12:00.390Z,100.00
2018-11-11T02:14:29.363Z,100.00
2018-11-11T02:16:58.377Z,100.00
2018-11-11T02:19:27.347Z,100.00
2018-11-11T02:21:56.279Z,100.00
2018-11-11T02:24:25.281Z,100.00
2018-11-11T02:26:54.215Z,100.00
2018-11-11T02:29:23.151Z,100.00
2018-11-11T02:31:52.117Z,100.00
2018-11-11T02:34:21.130Z,100.00
2018-11-11T02:36:50.050Z,100.00
2018-11-11T02:39:19.023Z,100.00
2018-11-11T02:41:47.986Z,100.00
2018-11-11T02:44:16.952Z,100.00
2018-11-11T02:46:45.927Z,100.00
2018-11-11T02:49:14.881Z,100.00
2018-11-11T02:51:43.879Z,100.00
2018-11-11T02:54:12.910Z,100.00
2018-11-11T02:56:41.858Z,100.00
2018-11-11T02:59:10.814Z,100.00
2018-11-11T03:01:39.769Z,100.00
2018-11-11T03:04:08.774Z,100.00
2018-11-11T03:06:37.727Z,100.00
2018-11-11T03:09:10.366Z,100.00
2018-11-11T03:11:39.406Z,100.00
2018-11-11T03:14:08.485Z,100.00
2018-11-11T03:16:37.530Z,100.00
2018-11-11T03:19:07.432Z,100.00
2018-11-11T03:21:36.374Z,100.00
2018-11-11T03:24:05.542Z,100.00
2018-11-11T03:26:34.549Z,100.00
2018-11-11T03:29:03.496Z,100.00
2018-11-11T03:31:32.491Z,100.00
2018-11-11T03:34:01.450Z,100.00
2018-11-11T03:36:30.383Z,100.00
2018-11-11T03:38:59.342Z,100.00
2018-11-11T03:41:28.271Z,100.00
2018-11-11T03:43:57.215Z,100.00
2018-11-11T03:46:26.166Z,100.00
2018-11-11T03:48:55.111Z,100.00
2018-11-11T03:51:24.043Z,100.00
2018-11-11T03:53:53.060Z,100.00
2018-11-11T03:56:22.019Z,100.00
2018-11-11T03:58:51.160Z,100.00
2018-11-11T04:01:20.095Z,100.00
2018-11-11T04:03:49.102Z,100.00
2018-11-11T04:06:18.038Z,100.00
2018-11-11T04:08:47.267Z,100.00
2018-11-11T04:11:16.256Z,100.00
2018-11-11T04:13:45.170Z,100.00
2018-11-11T04:16:14.130Z,100.00
2018-11-11T04:18:43.082Z,100.00
2018-11-11T04:21:12.065Z,100.00
2018-11-11T04:23:41.047Z,100.00
2018-11-11T04:26:10.004Z,100.00
2018-11-11T04:28:38.980Z,100.00
2018-11-11T04:31:08.043Z,100.00
2018-11-11T04:33:37.058Z,100.00
2018-11-11T04:36:06.124Z,100.00
2018-11-11T04:38:35.046Z,100.00
2018-11-11T04:41:04.011Z,100.00
2018-11-11T04:43:32.935Z,100.00
2018-11-11T04:46:01.873Z,100.00
2018-11-11T04:48:30.814Z,100.00
2018-11-11T04:50:59.823Z,100.00
2018-11-11T04:53:28.781Z,100.00
2018-11-11T04:55:57.753Z,100.00
2018-11-11T04:58:26.794Z,100.00
2018-11-11T05:00:55.724Z,100.00
2018-11-11T05:03:24.691Z,100.00
2018-11-11T05:05:53.659Z,100.00
2018-11-11T05:08:22.626Z,100.00
2018-11-11T05:10:51.552Z,100.00
2018-11-11T05:13:20.564Z,100.00
2018-11-11T05:15:49.506Z,100.00
2018-11-11T05:18:18.426Z,100.00
2018-11-11T05:20:47.353Z,100.00
2018-11-11T05:23:16.358Z,100.00
2018-11-11T05:25:45.318Z,100.00
2018-11-11T05:28:14.357Z,100.00
2018-11-11T05:30:43.382Z,100.00
2018-11-11T05:33:12.282Z,100.00
2018-11-11T05:35:41.311Z,100.00
2018-11-11T05:38:10.270Z,100.00
2018-11-11T05:40:39.222Z,100.00
2018-11-11T05:43:08.162Z,100.00
2018-11-11T05:45:37.095Z,100.00
2018-11-11T05:48:06.051Z,100.00
2018-11-11T05:50:34.998Z,100.00
2018-11-11T05:53:04.001Z,100.00
2018-11-11T05:55:32.973Z,100.00
2018-11-11T05:58:01.941Z,100.00
2018-11-11T06:00:30.933Z,100.00
2018-11-11T06:02:59.874Z,100.00
2018-11-11T06:05:28.852Z,100.00
2018-11-11T06:07:57.798Z,100.00
2018-11-11T06:10:26.738Z,100.00
2018-11-11T06:12:55.690Z,100.00
2018-11-11T06:15:24.666Z,100.00
2018-11-11T06:17:53.582Z,100.00
2018-11-11T06:20:22.529Z,100.00
2018-11-11T06:22:51.545Z,100.00
2018-11-11T06:25:20.511Z,100.00
2018-11-11T06:27:49.467Z,99.57
2018-11-11T06:30:18.404Z,100.00
2018-11-11T06:32:47.390Z,100.00
2018-11-11T06:35:16.328Z,98.69
2018-11-11T06:37:45.273Z,97.72
2018-11-11T06:40:14.540Z,98.11
2018-11-11T06:42:43.698Z,98.25
2018-11-11T06:45:14.070Z,97.55
2018-11-11T06:47:43.784Z,96.71
2018-11-11T06:50:13.763Z,96.45
2018-11-11T06:52:43.277Z,97.45
2018-11-11T06:55:12.515Z,95.42
2018-11-11T06:57:41.515Z,95.68
2018-11-11T07:00:12.934Z,95.76
2018-11-11T07:02:51.773Z,94.08
2018-11-11T07:05:20.724Z,92.85
2018-11-11T07:07:49.691Z,92.98
2018-11-11T07:10:18.634Z,92.70
2018-11-11T07:12:47.575Z,91.40
2018-11-11T07:15:16.520Z,90.74
2018-11-11T07:17:45.529Z,90.95
2018-11-11T07:20:14.451Z,90.50
2018-11-11T07:22:43.476Z,90.33
2018-11-11T07:25:12.731Z,90.83
2018-11-11T07:27:41.679Z,90.67
2018-11-11T07:30:10.665Z,90.69
2018-11-11T07:32:39.595Z,89.32
2018-11-11T07:35:09.669Z,88.67
2018-11-11T07:37:38.599Z,88.70
2018-11-11T07:40:09.870Z,87.35
2018-11-11T07:42:38.897Z,86.94
2018-11-11T07:45:07.866Z,85.99
2018-11-11T07:47:36.995Z,85.91
2018-11-11T07:50:07.383Z,84.06
2018-11-11T07:52:36.562Z,82.69
2018-11-11T07:55:06.046Z,81.46
2018-11-11T07:57:34.951Z,81.70
2018-11-11T08:00:03.907Z,81.82
2018-11-11T08:02:32.853Z,81.84
2018-11-11T08:05:01.848Z,81.08
2018-11-11T08:07:30.799Z,80.64
2018-11-11T08:09:59.772Z,79.13
2018-11-11T08:12:28.747Z,78.48
2018-11-11T08:14:57.746Z,77.51
2018-11-11T08:17:26.691Z,76.39
2018-11-11T08:19:55.698Z,75.35
2018-11-11T08:22:24.656Z,74.49
2018-11-11T08:24:53.657Z,73.23
2018-11-11T08:27:22.609Z,72.98
2018-11-11T08:29:51.574Z,72.86
2018-11-11T08:32:20.695Z,72.72
2018-11-11T08:34:49.540Z,72.06
2018-11-11T08:37:18.544Z,71.03
2018-11-11T08:39:47.542Z,69.67
2018-11-11T08:42:16.475Z,69.63
2018-11-11T08:44:45.452Z,68.88
2018-11-11T08:47:14.399Z,68.20
2018-11-11T08:49:43.410Z,67.99
2018-11-11T08:52:12.364Z,67.30
2018-11-11T08:54:41.355Z,65.27
2018-11-11T08:57:10.370Z,63.89
2018-11-11T08:59:39.477Z,64.10
2018-11-11T09:02:08.460Z,63.79
2018-11-11T09:04:37.499Z,63.28
2018-11-11T09:07:06.994Z,64.11
2018-11-11T09:09:35.978Z,62.49
2018-11-11T09:12:04.996Z,62.17
2018-11-11T09:14:33.966Z,61.17
2018-11-11T09:17:02.973Z,58.93
2018-11-11T09:19:31.923Z,56.98
2018-11-11T09:22:00.866Z,54.88
2018-11-11T09:24:29.862Z,54.62
2018-11-11T09:26:58.838Z,54.50
2018-11-11T09:29:27.821Z,54.99
2018-11-11T09:31:56.820Z,55.05
2018-11-11T09:34:25.802Z,55.53
2018-11-11T09:36:54.801Z,54.48
2018-11-11T09:39:23.824Z,55.49
2018-11-11T09:41:52.790Z,54.57
2018-11-11T09:44:21.719Z,53.28
2018-11-11T09:46:50.664Z,53.33
2018-11-11T09:49:19.611Z,53.08
2018-11-11T09:51:48.567Z,51.94
2018-11-11T09:54:17.625Z,52.45
2018-11-11T09:56:46.560Z,52.02
2018-11-11T09:59:15.517Z,50.97
2018-11-11T10:01:44.783Z,51.44
2018-11-11T10:04:17.920Z,50.28
2018-11-11T10:06:58.646Z,48.07
2018-11-11T10:11:36.218Z,46.63
2018-11-11T10:14:19.041Z,45.38
2018-11-11T10:16:52.416Z,46.51
2018-11-11T10:19:29.750Z,45.79
2018-11-11T10:22:03.833Z,45.53
2018-11-11T10:24:38.799Z,47.28
2018-11-11T10:27:13.862Z,47.22
2018-11-11T10:29:47.917Z,48.22
2018-11-11T10:32:32.349Z,48.03
2018-11-11T10:35:05.068Z,48.02
2018-11-11T10:37:42.492Z,49.13
2018-11-11T10:40:16.516Z,49.17
2018-11-11T10:42:55.974Z,50.67
2018-11-11T10:45:31.934Z,49.86
2018-11-11T10:48:05.791Z,49.91
2018-11-11T10:50:44.304Z,48.94
2018-11-11T10:53:13.266Z,47.85
2018-11-11T10:55:42.216Z,46.07
2018-11-11T10:58:11.209Z,44.40
2018-11-11T11:00:45.226Z,44.89
2018-11-11T11:03:19.119Z,42.32
2018-11-11T11:05:48.079Z,40.84
2018-11-11T11:08:17.089Z,39.41
2018-11-11T11:10:46.064Z,37.75
2018-11-11T11:13:15.053Z,38.67
2018-11-11T11:15:44.053Z,39.41
2018-11-11T11:18:13.133Z,37.09
2018-11-11T11:20:42.090Z,38.29
2018-11-11T11:23:11.098Z,37.43
2018-11-11T11:25:40.164Z,37.20
2018-11-11T11:28:09.117Z,38.84
2018-11-11T11:30:38.083Z,39.11
2018-11-11T11:33:07.077Z,39.83
2018-11-11T11:35:36.229Z,41.67
2018-11-11T11:38:05.579Z,44.03
2018-11-11T11:40:34.535Z,46.42
2018-11-11T11:43:03.531Z,48.15
2018-11-11T11:45:32.471Z,49.72
2018-11-11T11:48:01.418Z,49.28
2018-11-11T11:50:30.422Z,50.12
2018-11-11T11:52:59.417Z,51.60
2018-11-11T11:55:28.339Z,52.94
2018-11-11T11:58:08.395Z,52.99
2018-11-11T12:00:37.295Z,54.24
2018-11-11T12:03:06.258Z,54.17
2018-11-11T12:05:35.220Z,55.31
2018-11-11T12:08:04.144Z,54.93
2018-11-11T12:10:33.137Z,55.59
2018-11-11T12:13:02.093Z,55.48
2018-11-11T12:15:31.181Z,55.56
2018-11-11T12:18:00.108Z,56.17
2018-11-11T12:20:29.056Z,55.40
2018-11-11T12:22:59.170Z,56.14
2018-11-11T12:25:28.148Z,56.85
2018-11-11T12:27:57.567Z,56.54
2018-11-11T12:30:26.653Z,57.08
2018-11-11T12:32:55.702Z,57.51
2018-11-11T12:35:24.726Z,57.11
2018-11-11T12:37:53.701Z,56.77
2018-11-11T12:40:22.646Z,57.67
2018-11-11T12:42:51.586Z,58.60
2018-11-11T12:45:20.571Z,58.23
2018-11-11T12:47:50.131Z,60.34
2018-11-11T12:50:19.176Z,61.00
2018-11-11T12:52:48.055Z,61.37
2018-11-11T12:55:17.091Z,60.79
2018-11-11T12:57:46.037Z,60.34
2018-11-11T13:00:15.675Z,61.56
2018-11-11T13:02:44.626Z,61.70
2018-11-11T13:05:13.568Z,62.42
2018-11-11T13:07:42.537Z,61.88
2018-11-11T13:10:13.642Z,62.00
2018-11-11T13:12:42.920Z,61.34
2018-11-11T13:15:13.243Z,62.22
2018-11-11T13:17:42.579Z,62.41
2018-11-11T13:20:16.666Z,62.11
2018-11-11T13:22:45.703Z,62.32
2018-11-11T13:25:15.336Z,63.77
2018-11-11T13:27:44.398Z,62.98
2018-11-11T13:30:14.523Z,62.48
2018-11-11T13:32:43.469Z,63.71
2018-11-11T13:35:14.257Z,63.15
2018-11-11T13:37:43.253Z,62.69
2018-11-11T13:40:14.684Z,63.74
2018-11-11T13:42:43.614Z,63.36
2018-11-11T13:45:15.222Z,63.38
2018-11-11T13:47:45.331Z,63.21
2018-11-11T13:50:16.850Z,63.97
2018-11-11T13:52:46.498Z,64.14
2018-11-11T13:55:15.981Z,64.33
2018-11-11T13:57:45.764Z,64.11
2018-11-11T14:00:18.644Z,64.29
2018-11-11T14:02:47.665Z,64.57
2018-11-11T14:05:16.622Z,65.10
2018-11-11T14:07:45.687Z,65.26
2018-11-11T14:10:15.042Z,65.38
2018-11-11T14:12:44.048Z,65.66
2018-11-11T14:15:18.136Z,66.21
2018-11-11T14:17:47.753Z,65.91
2018-11-11T14:20:17.882Z,66.84
2018-11-11T14:22:47.726Z,67.87
2018-11-11T14:25:20.433Z,67.32
2018-11-11T14:27:49.390Z,67.98
2018-11-11T14:30:23.836Z,67.96
2018-11-11T14:32:53.654Z,68.39
2018-11-11T14:35:22.632Z,69.18
2018-11-11T14:37:51.960Z,69.54
2018-11-11T14:40:22.224Z,69.99
2018-11-11T14:42:51.185Z,71.08
2018-11-11T14:45:20.747Z,71.05
2018-11-11T14:47:50.909Z,71.52
2018-11-11T14:50:20.655Z,73.13
2018-11-11T14:52:49.686Z,73.65
2018-11-11T14:55:23.702Z,74.94
2018-11-11T14:57:52.749Z,74.80
2018-11-11T15:00:31.646Z,75.88
2018-11-11T15:03:10.999Z,76.35
2018-11-11T15:05:39.960Z,77.36
2018-11-11T15:08:09.097Z,77.38
2018-11-11T15:10:38.268Z,77.55
2018-11-11T15:13:08.011Z,77.80
2018-11-11T15:15:37.024Z,79.16
2018-11-11T15:18:06.258Z,79.38
2018-11-11T15:20:35.618Z,79.30
2018-11-11T15:23:04.627Z,80.24
2018-11-11T15:25:33.592Z,81.17
2018-11-11T15:28:02.570Z,81.62
2018-11-11T15:30:32.865Z,82.30
2018-11-11T15:33:02.355Z,82.34
2018-11-11T15:35:31.358Z,83.13
2018-11-11T15:38:00.315Z,83.59
2018-11-11T15:40:30.652Z,83.35
2018-11-11T15:42:59.802Z,84.42
2018-11-11T15:45:31.059Z,84.59
2018-11-11T15:48:00.373Z,84.69
2018-11-11T15:50:30.542Z,85.37
2018-11-11T15:53:01.919Z,86.17
2018-11-11T15:55:32.146Z,86.66
2018-11-11T15:58:01.197Z,86.98
2018-11-11T16:00:32.553Z,87.29
2018-11-11T16:03:01.487Z,87.68
2018-11-11T16:05:30.421Z,87.90
2018-11-11T16:08:00.233Z,87.81
2018-11-11T16:10:30.446Z,88.53
2018-11-11T16:12:59.402Z,88.92
2018-11-11T16:15:43.254Z,89.21
2018-11-11T16:18:13.407Z,89.65
2018-11-11T16:20:42.413Z,90.32
2018-11-11T16:23:11.643Z,90.99
2018-11-11T16:25:40.744Z,90.90
2018-11-11T16:28:09.691Z,90.97
2018-11-11T16:30:39.195Z,90.85
2018-11-11T16:33:09.449Z,91.12
2018-11-11T16:35:38.457Z,90.84
2018-11-11T16:38:07.627Z,91.11
2018-11-11T16:40:37.587Z,91.17
2018-11-11T16:43:06.591Z,91.61
2018-11-11T16:45:36.306Z,91.57
2018-11-11T16:48:05.631Z,91.61
2018-11-11T16:50:35.558Z,91.92
2018-11-11T16:53:06.699Z,92.18
2018-11-11T16:55:36.628Z,92.86
2018-11-11T16:58:05.579Z,93.18
2018-11-11T17:00:36.005Z,93.29
2018-11-11T17:03:05.908Z,93.52
2018-11-11T17:05:36.066Z,93.51
2018-11-11T17:08:05.085Z,93.55
2018-11-11T17:10:35.379Z,94.21
2018-11-11T17:13:06.164Z,94.71
2018-11-11T17:15:35.294Z,94.30
2018-11-11T17:18:04.249Z,94.21
2018-11-11T17:20:33.271Z,94.61
2018-11-11T17:23:03.917Z,94.24
2018-11-11T17:25:32.946Z,94.24
2018-11-11T17:28:01.968Z,94.82
2018-11-11T17:30:32.221Z,94.73
2018-11-11T17:33:01.955Z,95.17
2018-11-11T17:35:30.885Z,95.89
2018-11-11T17:37:59.864Z,96.59
2018-11-11T17:40:30.047Z,96.38
2018-11-11T17:42:59.690Z,96.76
2018-11-11T17:45:28.660Z,96.32
2018-11-11T17:47:57.998Z,95.85
2018-11-11T17:50:28.335Z,96.05
2018-11-11T17:52:57.538Z,95.95
2018-11-11T17:55:27.284Z,97.04
2018-11-11T17:57:56.221Z,97.44
2018-11-11T18:00:26.384Z,97.70
2018-11-11T18:02:55.972Z,97.83
2018-11-11T18:05:26.278Z,97.45
2018-11-11T18:07:55.250Z,96.99
2018-11-11T18:10:25.079Z,97.17
2018-11-11T18:12:54.006Z,97.41
2018-11-11T18:15:24.632Z,97.73
2018-11-11T18:17:53.574Z,98.22
2018-11-11T18:20:24.019Z,98.54
2018-11-11T18:22:53.768Z,98.44
2018-11-11T18:25:22.792Z,99.02
2018-11-11T18:27:52.349Z,99.35
2018-11-11T18:30:37.119Z,99.27
2018-11-11T18:33:06.407Z,98.66
2018-11-11T18:35:35.382Z,98.02
2018-11-11T18:38:04.397Z,98.28
2018-11-11T18:40:33.339Z,98.70
2018-11-11T18:43:02.302Z,99.39
2018-11-11T18:45:31.533Z,99.28
2018-11-11T18:48:00.575Z,99.95
2018-11-11T18:50:30.818Z,99.81
2018-11-11T18:52:59.854Z,99.28
2018-11-11T18:55:28.762Z,98.90
2018-11-11T18:57:57.791Z,98.72
2018-11-11T19:00:29.020Z,99.36
2018-11-11T19:02:58.372Z,99.82
2018-11-11T19:05:27.813Z,100.00
2018-11-11T19:07:57.060Z,100.00
2018-11-11T19:10:27.426Z,100.00
2018-11-11T19:12:57.864Z,100.00
2018-11-11T19:15:26.815Z,100.00
2018-11-11T19:17:55.824Z,100.00
2018-11-11T19:20:25.845Z,100.00
2018-11-11T19:22:54.971Z,100.00
2018-11-11T19:25:25.334Z,100.00
2018-11-11T19:27:54.919Z,100.00
2018-11-11T19:30:25.295Z,100.00
2018-11-11T19:32:54.542Z,100.00
2018-11-11T19:35:23.504Z,100.00
2018-11-11T19:37:53.815Z,100.00
2018-11-11T19:40:24.110Z,100.00
2018-11-11T19:42:53.929Z,100.00
2018-11-11T19:45:24.405Z,100.00
2018-11-11T19:47:53.422Z,100.00
2018-11-11T19:50:23.676Z,100.00
2018-11-11T19:52:53.647Z,100.00
2018-11-11T19:55:23.326Z,100.00
2018-11-11T19:57:52.322Z,100.00
2018-11-11T20:00:23.561Z,100.00
2018-11-11T20:02:53.223Z,100.00
2018-11-11T20:05:22.569Z,100.00
2018-11-11T20:07:52.882Z,100.00
2018-11-11T20:10:22.656Z,100.00
2018-11-11T20:12:51.606Z,100.00
2018-11-11T20:15:22.203Z,100.00
2018-11-11T20:17:51.286Z,100.00
2018-11-11T20:20:22.466Z,100.00
2018-11-11T20:22:51.514Z,100.00
2018-11-11T20:25:21.200Z,100.00
2018-11-11T20:27:50.160Z,100.00
2018-11-11T20:30:21.675Z,100.00
2018-11-11T20:32:50.734Z,100.00
2018-11-11T20:35:21.138Z,100.00
2018-11-11T20:37:50.143Z,100.00
2018-11-11T20:40:20.558Z,100.00
2018-11-11T20:42:50.000Z,100.00
2018-11-11T20:45:20.354Z,100.00
2018-11-11T20:47:50.019Z,100.00
2018-11-11T20:50:20.231Z,100.00
2018-11-11T20:52:50.833Z,100.00
2018-11-11T20:55:20.333Z,100.00
2018-11-11T20:57:49.267Z,100.00
2018-11-11T21:00:19.747Z,100.00
2018-11-11T21:02:48.763Z,100.00
2018-11-11T21:05:19.329Z,100.00
2018-11-11T21:07:48.410Z,100.00
2018-11-11T21:10:18.728Z,100.00
2018-11-11T21:12:47.710Z,100.00
2018-11-11T21:15:18.131Z,100.00
2018-11-11T21:17:47.504Z,100.00
2018-11-11T21:20:18.951Z,100.00
2018-11-11T21:22:47.897Z,100.00
2018-11-11T21:25:16.927Z,100.00
2018-11-11T21:27:46.820Z,100.00
2018-11-11T21:30:17.264Z,100.00
2018-11-11T21:32:46.630Z,100.00
2018-11-11T21:35:15.597Z,100.00
2018-11-11T21:37:44.826Z,100.00
2018-11-11T21:40:19.666Z,100.00
2018-11-11T21:42:49.294Z,100.00
2018-11-11T21:45:19.539Z,100.00
2018-11-11T21:47:48.630Z,100.00
2018-11-11T21:50:18.998Z,100.00
2018-11-11T21:52:54.773Z,100.00
2018-11-11T21:55:23.737Z,100.00
2018-11-11T21:57:52.693Z,100.00
2018-11-11T22:00:21.671Z,100.00
2018-11-11T22:02:50.745Z,100.00
2018-11-11T22:05:19.813Z,100.00
2018-11-11T22:07:48.768Z,100.00
2018-11-11T22:10:17.810Z,100.00
2018-11-11T22:12:46.768Z,100.00
2018-11-11T22:15:16.651Z,100.00
2018-11-11T22:17:45.588Z,100.00
2018-11-11T22:20:14.564Z,100.00
2018-11-11T22:22:43.574Z,100.00
2018-11-11T22:25:12.586Z,100.00
2018-11-11T22:27:41.566Z,100.00
2018-11-11T22:30:11.911Z,100.00
2018-11-11T22:32:40.990Z,100.00
2018-11-11T22:35:11.186Z,100.00
2018-11-11T22:37:40.287Z,100.00
2018-11-11T22:40:11.379Z,100.00
2018-11-11T22:42:40.430Z,100.00
2018-11-11T22:45:12.154Z,100.00
2018-11-11T22:47:41.192Z,100.00
2018-11-11T22:50:12.519Z,100.00
2018-11-11T22:52:41.547Z,100.00
2018-11-11T22:55:11.391Z,100.00
2018-11-11T22:57:40.810Z,100.00
2018-11-11T23:00:16.303Z,100.00
2018-11-11T23:02:45.413Z,100.00
2018-11-11T23:05:14.813Z,100.00
2018-11-11T23:07:43.746Z,100.00
2018-11-11T23:10:12.760Z,100.00
2018-11-11T23:12:41.735Z,100.00
2018-11-11T23:15:12.079Z,100.00
2018-11-11T23:17:41.050Z,100.00
2018-11-11T23:20:11.724Z,100.00
2018-11-11T23:22:41.097Z,100.00
2018-11-11T23:25:11.842Z,100.00
2018-11-11T23:27:40.891Z,100.00
2018-11-11T23:30:16.184Z,100.00
2018-11-11T23:32:45.526Z,100.00
2018-11-11T23:35:14.481Z,100.00
2018-11-11T23:37:43.862Z,100.00
2018-11-11T23:40:14.101Z,100.00
2018-11-11T23:42:43.854Z,100.00
2018-11-11T23:45:12.805Z,100.00
2018-11-11T23:47:41.852Z,100.00
2018-11-11T23:50:13.528Z,100.00
2018-11-11T23:52:43.325Z,100.00
2018-11-11T23:55:13.785Z,100.00
2018-11-11T23:57:42.714Z,100.00
